Time;durP1;ratioP1;P1;durP2;ratioP2;P2;SDS_P1;SDS_P2;PMS_P1;PMS_P2;Temp;Humidity;BMP_temperature;BMP_pressure;BME280_temperature;BME280_humidity;BME280_pressure;Samples;Min_cycle;Max_cycle;Signal;HPM_P1;HPM_P2
2021/12/06 00:03:04;;;;;;;64.20;29.90;;;;;;;1.69;76.02;99367.48;126815;1310;107567;-81
2021/12/06 00:06:11;;;;;;;66.00;29.80;;;;;;;1.63;75.86;99367.25;126632;1310;109030;-79
2021/12/06 00:09:20;;;;;;;62.30;29.50;;;;;;;1.61;76.02;99374.05;126816;1310;108697;-81
2021/12/06 00:12:26;;;;;;;59.30;26.20;;;;;;;1.57;76.33;99377.15;126525;1314;106309;-78
2021/12/06 00:15:32;;;;;;;62.70;28.00;;;;;;;1.56;76.36;99378.25;126836;1310;108929;-81
2021/12/06 00:18:38;;;;;;;59.30;28.20;;;;;;;1.61;76.19;99385.32;126884;1310;108146;-77
2021/12/06 00:21:43;;;;;;;61.80;29.40;;;;;;;1.63;76.33;99388.75;126939;1310;108902;-77
2021/12/06 00:24:49;;;;;;;59.50;28.40;;;;;;;1.63;76.14;99382.70;126901;1313;108823;-77
2021/12/06 00:27:54;;;;;;;63.80;29.80;;;;;;;1.62;76.56;99375.23;126654;1310;108566;-80
2021/12/06 00:31:02;;;;;;;58.10;28.10;;;;;;;1.64;76.26;99369.29;126361;1311;108828;-80
2021/12/06 00:34:13;;;;;;;68.50;30.80;;;;;;;1.67;76.37;99368.36;126808;1314;108652;-82
2021/12/06 00:37:20;;;;;;;69.30;30.00;;;;;;;1.68;76.30;99372.59;126676;1314;108857;-79
2021/12/06 00:40:29;;;;;;;57.30;26.20;;;;;;;1.68;76.32;99371.90;126911;1310;108688;-80
2021/12/06 00:43:36;;;;;;;58.80;26.50;;;;;;;1.70;76.55;99370.03;126499;1310;109012;-81
2021/12/06 00:46:42;;;;;;;59.20;28.00;;;;;;;1.70;76.44;99369.84;126651;1313;108731;-81
2021/12/06 00:49:49;;;;;;;57.80;27.80;;;;;;;1.72;76.32;99370.39;126620;1310;108709;-81
2021/12/06 00:52:55;;;;;;;57.50;27.80;;;;;;;1.67;76.87;99373.59;126884;1310;107770;-79
2021/12/06 00:56:01;;;;;;;56.20;26.30;;;;;;;1.57;76.65;99380.44;126818;1310;108692;-80
2021/12/06 00:59:06;;;;;;;58.40;27.20;;;;;;;1.54;76.76;99389.84;126805;1310;108844;-81
2021/12/06 01:02:13;;;;;;;66.80;29.20;;;;;;;1.50;76.83;99391.50;126611;1310;108834;-80
2021/12/06 01:05:22;;;;;;;62.40;28.00;;;;;;;1.39;77.04;99395.87;126437;1310;107932;-80
2021/12/06 01:08:27;;;;;;;53.60;24.40;;;;;;;1.36;77.09;99398.71;126697;1310;108845;-80
2021/12/06 01:11:33;;;;;;;62.90;27.30;;;;;;;1.43;77.01;99398.34;126734;1310;108865;-79
2021/12/06 01:14:39;;;;;;;56.00;26.90;;;;;;;1.49;76.87;99398.58;126521;1310;109660;-79
2021/12/06 01:17:44;;;;;;;55.70;26.20;;;;;;;1.46;76.80;99397.27;126391;1310;107677;-79
2021/12/06 01:20:57;;;;;;;58.60;26.50;;;;;;;1.48;76.89;99403.59;126629;1314;109021;-80
2021/12/06 01:24:02;;;;;;;56.40;26.30;;;;;;;1.51;77.12;99403.21;126404;1313;108254;-80
2021/12/06 01:27:27;;;;;;;56.90;25.00;;;;;;;1.51;76.92;99408.61;126359;1310;108893;-79
2021/12/06 01:30:50;;;;;;;65.20;28.10;;;;;;;1.46;77.28;99411.77;126483;1310;107671;-76
2021/12/06 01:39:08;;;;;;;56.80;26.40;;;;;;;1.46;77.26;99415.52;126419;1313;108705;-77
2021/12/06 01:41:00;;;;;;;57.40;25.50;;;;;;;1.48;77.38;99407.08;126252;1314;108807;-79
2021/12/06 01:44:11;;;;;;;56.10;26.90;;;;;;;1.52;77.33;99411.15;126331;1317;108903;-82
2021/12/06 01:47:25;;;;;;;51.10;25.40;;;;;;;1.58;77.17;99413.39;126536;1317;108894;-78
2021/12/06 01:50:31;;;;;;;54.10;25.90;;;;;;;1.60;77.08;99411.67;126453;1314;108879;-78
2021/12/06 01:53:36;;;;;;;49.40;24.60;;;;;;;1.55;77.30;99414.63;126426;1313;109241;-77
2021/12/06 01:56:42;;;;;;;61.60;27.60;;;;;;;1.49;77.30;99412.95;126345;1313;108882;-79
2021/12/06 01:59:48;;;;;;;59.10;25.90;;;;;;;1.45;77.74;99414.17;126473;1313;109018;-78
2021/12/06 02:02:54;;;;;;;56.90;25.00;;;;;;;1.45;77.58;99408.41;126475;1313;107794;-79
2021/12/06 02:06:05;;;;;;;54.00;24.70;;;;;;;1.50;77.47;99412.54;126456;1317;109044;-79
2021/12/06 02:09:13;;;;;;;52.20;25.80;;;;;;;1.56;77.48;99413.48;126358;1313;109191;-79
2021/12/06 02:12:20;;;;;;;53.00;24.80;;;;;;;1.61;77.39;99415.39;126437;1313;108929;-80
2021/12/06 02:15:38;;;;;;;52.60;24.70;;;;;;;1.66;77.34;99416.98;126386;1313;108779;-78
2021/12/06 02:18:49;;;;;;;50.40;25.30;;;;;;;1.67;77.34;99420.72;126435;1313;107772;-80
2021/12/06 02:21:54;;;;;;;51.40;23.90;;;;;;;1.57;77.61;99426.58;126396;1317;109076;-80
2021/12/06 02:25:01;;;;;;;52.90;24.60;;;;;;;1.50;77.57;99429.20;126481;1313;109025;-80
2021/12/06 02:28:07;;;;;;;55.40;25.50;;;;;;;1.45;77.68;99429.23;126511;1313;109039;-78
2021/12/06 02:31:13;;;;;;;50.50;24.60;;;;;;;1.44;77.79;99426.33;126347;1313;109067;-78
2021/12/06 02:34:19;;;;;;;56.10;26.70;;;;;;;1.46;77.77;99424.78;126441;1313;107940;-77
2021/12/06 02:37:29;;;;;;;51.20;27.20;;;;;;;1.53;77.62;99425.98;126412;1316;108748;-76
2021/12/06 02:40:38;;;;;;;52.70;25.90;;;;;;;1.58;77.74;99425.98;126345;1313;108817;-75
2021/12/06 02:43:44;;;;;;;52.50;27.00;;;;;;;1.52;77.87;99428.02;126500;1316;108851;-75
2021/12/06 02:46:53;;;;;;;51.20;24.30;;;;;;;1.46;77.66;99431.59;126478;1316;109189;-75
2021/12/06 02:50:07;;;;;;;52.80;25.00;;;;;;;1.43;77.67;99431.67;126518;1313;108973;-75
2021/12/06 02:53:12;;;;;;;51.80;24.20;;;;;;;1.42;77.98;99431.27;126457;1313;108789;-76
2021/12/06 02:56:30;;;;;;;45.80;22.10;;;;;;;1.35;78.30;99431.77;126456;1313;108998;-77
2021/12/06 02:59:37;;;;;;;46.80;21.90;;;;;;;1.30;78.24;99433.52;126396;1317;108760;-76
2021/12/06 03:02:43;;;;;;;48.50;26.40;;;;;;;1.32;78.16;99427.41;126360;1317;106991;-75
2021/12/06 03:05:50;;;;;;;45.00;22.70;;;;;;;1.41;78.01;99426.05;126394;1313;108732;-76
2021/12/06 03:09:04;;;;;;;43.80;21.20;;;;;;;1.49;77.89;99423.84;126493;1313;108912;-77
2021/12/06 03:12:15;;;;;;;43.80;21.70;;;;;;;1.47;78.21;99426.24;126345;1313;108748;-76
2021/12/06 03:15:20;;;;;;;41.30;21.00;;;;;;;1.40;77.97;99419.62;126419;1317;108410;-77
2021/12/06 03:18:26;;;;;;;41.60;20.10;;;;;;;1.38;78.32;99415.39;126412;1313;108946;-76
2021/12/06 03:21:32;;;;;;;37.00;17.50;;;;;;;1.36;77.90;99414.63;126339;1313;108916;-78
2021/12/06 03:24:40;;;;;;;39.40;19.40;;;;;;;1.41;77.94;99415.90;126414;1313;108805;-77
2021/12/06 03:27:45;;;;;;;32.20;17.00;;;;;;;1.43;77.82;99419.06;126372;1313;108885;-79
2021/12/06 03:30:51;;;;;;;37.10;17.90;;;;;;;1.43;77.94;99415.55;126368;1313;108726;-76
2021/12/06 03:33:59;;;;;;;36.10;18.40;;;;;;;1.39;78.02;99425.29;126490;1313;108820;-76
2021/12/06 03:37:08;;;;;;;36.10;17.30;;;;;;;1.36;78.30;99425.83;126913;1310;108826;-75
2021/12/06 03:40:15;;;;;;;38.70;18.80;;;;;;;1.27;78.06;99424.61;126638;1313;108811;-78
2021/12/06 03:43:23;;;;;;;32.40;16.90;;;;;;;1.28;78.12;99427.02;126757;1310;107748;-80
2021/12/06 03:46:31;;;;;;;27.10;14.10;;;;;;;1.26;78.46;99434.68;126861;1310;108772;-81
2021/12/06 03:49:38;;;;;;;30.20;15.40;;;;;;;1.27;78.55;99443.06;126761;1313;108656;-81
2021/12/06 03:52:43;;;;;;;30.10;16.40;;;;;;;1.24;78.60;99449.52;127043;1310;108958;-80
2021/12/06 03:55:49;;;;;;;31.60;16.10;;;;;;;1.22;78.41;99459.89;126728;1311;108806;-79
2021/12/06 03:58:55;;;;;;;29.60;15.70;;;;;;;1.22;78.47;99462.88;126539;1317;107311;-79
2021/12/06 04:02:01;;;;;;;28.40;15.20;;;;;;;1.22;78.35;99465.29;126456;1310;108725;-79
2021/12/06 04:05:08;;;;;;;31.80;16.30;;;;;;;1.23;78.29;99472.20;126666;1310;107946;-80
2021/12/06 04:08:14;;;;;;;35.70;17.10;;;;;;;1.24;78.27;99476.58;126761;1313;108872;-81
2021/12/06 04:11:20;;;;;;;33.20;16.10;;;;;;;1.29;78.27;99483.17;126729;1316;108709;-80
2021/12/06 04:14:25;;;;;;;33.30;17.10;;;;;;;1.32;78.35;99482.42;126938;1310;109034;-81
2021/12/06 04:17:31;;;;;;;30.60;16.10;;;;;;;1.33;78.29;99488.48;126941;1314;107752;-80
2021/12/06 04:20:38;;;;;;;30.60;15.30;;;;;;;1.37;78.17;99495.73;126658;1311;108765;-80
2021/12/06 04:23:45;;;;;;;29.20;15.50;;;;;;;1.36;78.29;99501.02;126957;1310;108906;-80
2021/12/06 04:26:51;;;;;;;29.30;15.50;;;;;;;1.31;78.27;99507.19;126924;1310;108904;-80
2021/12/06 04:29:57;;;;;;;30.20;16.30;;;;;;;1.29;78.29;99515.56;126532;1310;108717;-82
2021/12/06 04:33:04;;;;;;;31.40;15.70;;;;;;;1.27;78.37;99515.01;126939;1310;108842;-82
2021/12/06 04:36:10;;;;;;;28.10;14.40;;;;;;;1.27;78.37;99522.56;126837;1314;107737;-79
2021/12/06 04:39:19;;;;;;;29.00;15.90;;;;;;;1.29;78.46;99524.83;126880;1310;108814;-81
2021/12/06 04:42:25;;;;;;;29.30;15.20;;;;;;;1.31;78.55;99528.38;126638;1313;108328;-80
2021/12/06 04:45:31;;;;;;;33.10;16.90;;;;;;;1.31;78.46;99530.48;126938;1314;108773;-81
2021/12/06 04:48:37;;;;;;;29.40;15.50;;;;;;;1.35;78.42;99529.48;126660;1311;108854;-81
2021/12/06 04:51:49;;;;;;;28.70;14.90;;;;;;;1.34;78.39;99523.63;126881;1313;108712;-80
2021/12/06 04:54:58;;;;;;;30.20;15.40;;;;;;;1.28;78.46;99527.05;126607;1311;108665;-81
2021/12/06 04:58:06;;;;;;;30.00;15.60;;;;;;;1.28;78.56;99522.48;126550;1314;108740;-80
2021/12/06 05:01:17;;;;;;;23.60;12.20;;;;;;;1.36;78.46;99513.86;126797;1310;109007;-80
2021/12/06 05:04:28;;;;;;;28.20;13.90;;;;;;;1.41;78.52;99513.85;126817;1310;108848;-83
2021/12/06 05:07:37;;;;;;;27.20;13.80;;;;;;;1.42;78.38;99509.73;126918;1311;108923;-81
2021/12/06 05:10:43;;;;;;;23.90;13.30;;;;;;;1.38;78.43;99511.27;126837;1310;108803;-81
2021/12/06 05:13:52;;;;;;;25.50;13.70;;;;;;;1.27;78.66;99511.70;126782;1310;109021;-81
2021/12/06 05:16:58;;;;;;;27.40;13.10;;;;;;;1.26;78.53;99507.55;126630;1314;109598;-80
2021/12/06 05:20:06;;;;;;;27.80;14.40;;;;;;;1.24;78.65;99507.88;127039;1309;108729;-80
2021/12/06 05:23:14;;;;;;;28.40;14.50;;;;;;;1.24;78.66;99502.16;126597;1314;109019;-81
2021/12/06 05:26:20;;;;;;;21.40;11.20;;;;;;;1.24;78.76;99503.14;126512;1310;108707;-81
2021/12/06 05:29:29;;;;;;;25.70;13.40;;;;;;;1.24;78.87;99497.52;126778;1311;108815;-81
2021/12/06 05:32:36;;;;;;;25.50;12.70;;;;;;;1.27;78.85;99497.18;127115;1310;108839;-80
2021/12/06 05:35:41;;;;;;;24.70;12.90;;;;;;;1.25;78.73;99501.85;126700;1314;108797;-81
2021/12/06 05:38:49;;;;;;;23.70;13.10;;;;;;;1.27;78.77;99497.36;127004;1317;108769;-81
2021/12/06 05:41:55;;;;;;;22.00;12.50;;;;;;;1.26;78.62;99506.91;126971;1310;108817;-82
2021/12/06 05:45:00;;;;;;;26.80;14.00;;;;;;;1.24;78.69;99512.08;126610;1317;108822;-82
2021/12/06 05:48:06;;;;;;;25.70;13.60;;;;;;;1.17;78.60;99513.98;126893;1310;108781;-81
2021/12/06 05:51:12;;;;;;;21.40;11.40;;;;;;;1.22;78.71;99514.16;126578;1314;109602;-81
2021/12/06 05:54:18;;;;;;;20.90;11.30;;;;;;;1.28;78.67;99517.95;126549;1314;109399;-80
2021/12/06 05:57:24;;;;;;;21.20;11.90;;;;;;;1.32;78.58;99522.35;126491;1314;108902;-80
2021/12/06 06:00:32;;;;;;;22.10;13.00;;;;;;;1.37;78.65;99529.16;126459;1314;109024;-80
2021/12/06 06:03:37;;;;;;;21.60;12.00;;;;;;;1.39;78.43;99533.42;126994;1318;108652;-80
2021/12/06 06:06:43;;;;;;;20.10;12.00;;;;;;;1.37;78.37;99538.86;126567;1314;108890;-81
2021/12/06 06:09:49;;;;;;;23.80;14.70;;;;;;;1.37;78.37;99545.00;126838;1317;108815;-80
2021/12/06 06:12:54;;;;;;;25.10;14.20;;;;;;;1.34;78.45;99549.74;126707;1310;109010;-80
2021/12/06 06:16:01;;;;;;;34.30;20.60;;;;;;;1.34;78.52;99556.93;126465;1317;108805;-78
2021/12/06 06:19:07;;;;;;;34.20;18.90;;;;;;;1.39;78.55;99563.92;126505;1310;108693;-81
2021/12/06 06:22:13;;;;;;;26.30;15.80;;;;;;;1.50;78.47;99572.08;126465;1310;108997;-76
2021/12/06 06:25:18;;;;;;;23.30;13.70;;;;;;;1.46;78.41;99583.76;126680;1310;108847;-82
2021/12/06 06:28:24;;;;;;;25.20;15.20;;;;;;;1.48;78.35;99588.70;126703;1310;108739;-80
2021/12/06 06:31:29;;;;;;;19.40;12.70;;;;;;;1.51;78.30;99599.89;126855;1311;108911;-81
2021/12/06 06:34:35;;;;;;;23.10;14.10;;;;;;;1.53;78.35;99612.86;126963;1313;108776;-81
2021/12/06 06:37:40;;;;;;;20.70;12.90;;;;;;;1.53;78.35;99617.19;127031;1311;109072;-81
2021/12/06 06:40:46;;;;;;;23.50;13.80;;;;;;;1.53;78.23;99621.98;126631;1311;108784;-81
2021/12/06 06:43:52;;;;;;;22.80;13.90;;;;;;;1.51;78.22;99621.95;126590;1310;108889;-81
2021/12/06 06:46:57;;;;;;;26.10;12.70;;;;;;;1.50;78.30;99622.85;126612;1314;108757;-81
2021/12/06 06:50:03;;;;;;;22.90;12.10;;;;;;;1.51;78.38;99623.15;127145;1315;109029;-79
2021/12/06 06:53:09;;;;;;;34.90;21.30;;;;;;;1.51;78.22;99621.77;126971;1314;106912;-80
2021/12/06 06:56:14;;;;;;;27.90;16.40;;;;;;;1.46;78.37;99621.23;126520;1314;108936;-80
2021/12/06 06:59:20;;;;;;;21.60;12.80;;;;;;;1.48;78.23;99622.83;126568;1311;108799;-81
2021/12/06 07:02:25;;;;;;;21.90;12.20;;;;;;;1.44;78.25;99620.34;126609;1310;108905;-81
2021/12/06 07:05:30;;;;;;;19.30;11.40;;;;;;;1.36;78.55;99617.59;126669;1314;108906;-80
2021/12/06 07:08:36;;;;;;;25.00;13.30;;;;;;;1.27;78.49;99618.61;127028;1310;108896;-80
2021/12/06 07:11:45;;;;;;;26.80;16.50;;;;;;;1.24;78.71;99626.17;126847;1311;108688;-81
2021/12/06 07:14:50;;;;;;;17.00;10.10;;;;;;;1.25;78.86;99624.18;126897;1311;108823;-81
2021/12/06 07:17:56;;;;;;;23.30;14.10;;;;;;;1.24;78.95;99613.54;126922;1314;108983;-81
2021/12/06 07:21:01;;;;;;;17.70;11.30;;;;;;;1.24;78.73;99602.66;126868;1310;108940;-82
2021/12/06 07:24:08;;;;;;;16.40;10.40;;;;;;;1.21;78.79;99601.66;126716;1311;108793;-81
2021/12/06 07:27:14;;;;;;;17.10;11.20;;;;;;;1.21;79.21;99608.50;126851;1310;108854;-81
2021/12/06 07:30:21;;;;;;;19.50;12.50;;;;;;;1.19;79.02;99617.59;126908;1310;108787;-81
2021/12/06 07:33:27;;;;;;;25.00;15.00;;;;;;;1.12;79.04;99631.40;126974;1316;108849;-80
2021/12/06 07:36:32;;;;;;;21.80;13.00;;;;;;;1.15;79.15;99637.27;126500;1315;180341;-81
2021/12/06 07:39:38;;;;;;;18.70;11.40;;;;;;;1.24;79.06;99641.17;126685;1310;106122;-80
2021/12/06 07:42:44;;;;;;;15.70;9.50;;;;;;;1.35;78.84;99636.24;126942;1316;108398;-80
2021/12/06 07:45:50;;;;;;;16.90;10.40;;;;;;;1.38;78.76;99635.83;126745;1314;108902;-80
2021/12/06 07:48:55;;;;;;;18.90;11.50;;;;;;;1.38;78.64;99634.28;126743;1310;108866;-81
2021/12/06 07:52:01;;;;;;;17.80;10.40;;;;;;;1.45;78.66;99633.23;126906;1317;108775;-80
2021/12/06 07:55:10;;;;;;;17.20;10.20;;;;;;;1.54;78.55;99630.27;126776;1314;107817;-81
2021/12/06 07:58:15;;;;;;;16.10;10.30;;;;;;;1.52;78.41;99625.50;126742;1316;107786;-81
2021/12/06 08:01:21;;;;;;;17.30;9.90;;;;;;;1.42;78.46;99619.46;126990;1317;108951;-81
2021/12/06 08:04:26;;;;;;;20.00;12.00;;;;;;;1.40;78.62;99615.17;126760;1317;108724;-81
2021/12/06 08:07:31;;;;;;;19.40;11.80;;;;;;;1.38;78.66;99616.69;126741;1317;108551;-80
2021/12/06 08:10:39;;;;;;;16.10;9.60;;;;;;;1.39;78.71;99624.20;126553;1316;107072;-79
2021/12/06 08:13:50;;;;;;;18.60;12.10;;;;;;;1.40;78.69;99633.98;126620;1315;108991;-78
2021/12/06 08:16:56;;;;;;;16.70;10.90;;;;;;;1.43;78.74;99635.48;126642;1317;107733;-80
2021/12/06 08:20:01;;;;;;;18.30;11.30;;;;;;;1.43;78.64;99632.99;126597;1317;106638;-82
2021/12/06 08:23:07;;;;;;;18.40;11.00;;;;;;;1.37;78.63;99635.35;126586;1317;108899;-81
2021/12/06 08:26:14;;;;;;;20.80;12.60;;;;;;;1.30;78.51;99633.41;126646;1315;109093;-81
2021/12/06 08:29:19;;;;;;;21.90;12.90;;;;;;;1.34;78.75;99643.12;126688;1316;107475;-81
2021/12/06 08:32:25;;;;;;;19.80;11.80;;;;;;;1.36;78.55;99658.77;126642;1317;108830;-81
2021/12/06 08:35:31;;;;;;;18.00;11.20;;;;;;;1.34;78.60;99662.93;126677;1311;109147;-81
2021/12/06 08:38:38;;;;;;;18.40;11.10;;;;;;;1.35;78.74;99663.00;126636;1316;108788;-81
2021/12/06 08:41:43;;;;;;;21.40;12.20;;;;;;;1.43;78.50;99672.07;126649;1317;109115;-80
2021/12/06 08:44:49;;;;;;;19.50;12.10;;;;;;;1.45;78.52;99683.05;126614;1317;108710;-81
2021/12/06 08:47:55;;;;;;;19.90;12.80;;;;;;;1.39;78.54;99684.69;126582;1316;108895;-81
2021/12/06 08:51:05;;;;;;;19.50;12.50;;;;;;;1.33;78.54;99693.86;126584;1316;108751;-80
2021/12/06 08:54:14;;;;;;;23.00;13.70;;;;;;;1.33;78.61;99699.13;126608;1316;108987;-81
2021/12/06 08:57:20;;;;;;;22.90;12.60;;;;;;;1.32;78.63;99698.63;126622;1317;109031;-80
2021/12/06 09:00:28;;;;;;;18.70;11.30;;;;;;;1.35;78.66;99694.08;126625;1315;107990;-81
2021/12/06 09:03:35;;;;;;;24.70;13.80;;;;;;;1.40;78.61;99690.69;126562;1316;107714;-80
2021/12/06 09:06:42;;;;;;;32.30;16.20;;;;;;;1.46;78.57;99696.06;126687;1315;108630;-81
2021/12/06 09:09:51;;;;;;;28.30;15.20;;;;;;;1.52;78.46;99700.88;126504;1316;108890;-80
2021/12/06 09:12:57;;;;;;;28.40;15.70;;;;;;;1.53;78.46;99704.50;126691;1310;108705;-80
2021/12/06 09:16:04;;;;;;;34.10;18.40;;;;;;;1.55;78.39;99707.36;126555;1317;107258;-81
2021/12/06 09:19:12;;;;;;;37.90;19.00;;;;;;;1.57;78.44;99711.27;126575;1310;107485;-81
2021/12/06 09:22:18;;;;;;;41.40;18.70;;;;;;;1.57;78.37;99709.52;126507;1311;108790;-78
2021/12/06 09:25:24;;;;;;;26.00;14.10;;;;;;;1.57;78.44;99708.27;126555;1316;108696;-79
2021/12/06 09:28:31;;;;;;;33.20;16.40;;;;;;;1.56;78.38;99704.87;126755;1316;108814;-81
2021/12/06 09:31:37;;;;;;;27.30;14.50;;;;;;;1.54;78.51;99702.16;126597;1316;108447;-80
2021/12/06 09:34:45;;;;;;;27.90;16.80;;;;;;;1.56;78.39;99703.62;126517;1313;108984;-80
2021/12/06 09:37:51;;;;;;;30.50;18.90;;;;;;;1.45;78.49;99709.63;126986;1311;109003;-80
2021/12/06 09:40:58;;;;;;;25.90;15.50;;;;;;;1.29;78.82;99711.84;126574;1317;108715;-81
2021/12/06 09:44:06;;;;;;;35.40;19.30;;;;;;;1.18;78.77;99708.04;126533;1316;108830;-80
2021/12/06 09:47:12;;;;;;;29.60;15.30;;;;;;;1.11;78.94;99704.30;126530;1317;108765;-80
2021/12/06 09:50:21;;;;;;;30.20;15.70;;;;;;;1.11;78.95;99703.63;126611;1311;107505;-80
2021/12/06 09:53:29;;;;;;;27.90;15.40;;;;;;;1.19;78.98;99701.16;126615;1317;108851;-80
2021/12/06 09:56:39;;;;;;;27.10;15.00;;;;;;;1.23;78.93;99705.92;126632;1317;108776;-81
2021/12/06 09:59:46;;;;;;;25.70;14.60;;;;;;;1.23;78.89;99706.27;126608;1311;109217;-80
2021/12/06 10:02:52;;;;;;;25.90;14.00;;;;;;;1.20;78.67;99705.98;126727;1310;108586;-81
2021/12/06 10:06:02;;;;;;;27.30;14.80;;;;;;;1.16;78.72;99700.08;126599;1317;109694;-80
2021/12/06 10:09:11;;;;;;;31.10;16.20;;;;;;;1.15;78.80;99696.52;126541;1311;108782;-80
2021/12/06 10:12:18;;;;;;;35.00;20.80;;;;;;;1.12;78.98;99693.38;126537;1316;107366;-80
2021/12/06 10:15:26;;;;;;;24.50;13.10;;;;;;;1.18;79.04;99698.76;126641;1314;110090;-79
2021/12/06 10:18:32;;;;;;;31.50;15.60;;;;;;;1.28;78.91;99703.83;126854;1310;108800;-80
2021/12/06 10:21:39;;;;;;;31.30;17.00;;;;;;;1.40;78.67;99706.00;126688;1314;106972;-80
2021/12/06 10:24:52;;;;;;;29.80;16.40;;;;;;;1.43;78.61;99705.27;126622;1316;108855;-80
2021/12/06 10:28:04;;;;;;;29.50;15.80;;;;;;;1.32;78.58;99707.20;126608;1316;108884;-80
2021/12/06 10:31:11;;;;;;;28.40;16.30;;;;;;;1.28;78.66;99699.85;126597;1314;108697;-81
2021/12/06 10:34:19;;;;;;;31.80;16.80;;;;;;;1.25;78.78;99700.73;126735;1311;108804;-81
2021/12/06 10:37:45;;;;;;;32.50;17.30;;;;;;;1.25;78.75;99699.85;126533;1310;108799;-80
2021/12/06 10:40:56;;;;;;;25.30;13.50;;;;;;;1.25;78.86;99697.02;126502;1310;108810;-79
2021/12/06 10:44:09;;;;;;;31.40;16.40;;;;;;;1.27;78.72;99705.52;126699;1314;108988;-80
2021/12/06 10:47:15;;;;;;;36.70;18.60;;;;;;;1.32;78.64;99709.85;126604;1316;108754;-80
2021/12/06 10:50:21;;;;;;;36.30;18.80;;;;;;;1.35;78.49;99710.00;126486;1311;109031;-81
2021/12/06 10:53:34;;;;;;;36.30;18.40;;;;;;;1.36;78.48;99710.84;126601;1311;108780;-80
2021/12/06 10:56:47;;;;;;;30.70;16.80;;;;;;;1.35;78.51;99711.61;126555;1310;108696;-80
2021/12/06 10:59:53;;;;;;;39.10;19.80;;;;;;;1.31;78.67;99722.36;126605;1314;108853;-80
2021/12/06 11:03:00;;;;;;;33.20;16.50;;;;;;;1.39;78.61;99727.56;126536;1311;108760;-80
2021/12/06 11:06:10;;;;;;;29.20;15.10;;;;;;;1.37;78.38;99724.74;126644;1311;108744;-80
2021/12/06 11:09:19;;;;;;;39.50;24.00;;;;;;;1.34;78.40;99722.48;126785;1311;108938;-80
2021/12/06 11:12:26;;;;;;;29.00;16.30;;;;;;;1.38;78.55;99718.71;126594;1316;108809;-81
2021/12/06 11:15:31;;;;;;;26.50;15.50;;;;;;;1.35;78.30;99719.48;126499;1314;108820;-80
2021/12/06 11:18:43;;;;;;;25.40;14.90;;;;;;;1.34;78.40;99725.88;126513;1311;108786;-80
2021/12/06 11:21:52;;;;;;;28.90;16.60;;;;;;;1.30;78.49;99725.09;126646;1310;108984;-80
2021/12/06 11:24:57;;;;;;;28.60;15.20;;;;;;;1.29;78.62;99718.13;126592;1314;108701;-81
2021/12/06 11:28:22;;;;;;;26.90;15.40;;;;;;;1.31;78.38;99715.34;126582;1314;108903;-81
2021/12/06 11:31:28;;;;;;;22.50;13.00;;;;;;;1.33;78.39;99714.18;126725;1311;107696;-81
2021/12/06 11:34:36;;;;;;;24.10;14.40;;;;;;;1.38;78.43;99706.45;126688;1310;108818;-81
2021/12/06 11:37:44;;;;;;;29.30;15.90;;;;;;;1.40;78.16;99705.61;126626;1310;108888;-81
2021/12/06 11:40:55;;;;;;;26.10;15.70;;;;;;;1.39;78.22;99706.58;126780;1310;108778;-81
2021/12/06 11:44:13;;;;;;;26.60;16.00;;;;;;;1.35;78.27;99708.59;126702;1311;108444;-81
2021/12/06 11:47:21;;;;;;;25.70;15.50;;;;;;;1.33;78.27;99710.00;126675;1310;107688;-79
2021/12/06 11:50:30;;;;;;;25.90;15.60;;;;;;;1.28;78.26;99712.09;126522;1310;109059;-81
2021/12/06 11:53:38;;;;;;;29.70;17.10;;;;;;;1.17;78.40;99713.00;126494;1310;107367;-79
2021/12/06 11:56:48;;;;;;;30.30;16.70;;;;;;;1.11;78.57;99717.46;126522;1314;108972;-80
2021/12/06 12:00:06;;;;;;;26.70;15.10;;;;;;;1.09;78.57;99716.54;126585;1310;108906;-81
2021/12/06 12:03:12;;;;;;;33.30;17.40;;;;;;;1.08;78.51;99719.73;127043;1310;108805;-81
2021/12/06 12:06:28;;;;;;;31.20;17.30;;;;;;;1.10;78.59;99721.17;126620;1311;107771;-81
2021/12/06 12:09:37;;;;;;;33.90;18.60;;;;;;;1.13;78.41;99726.92;126703;1314;107105;-80
2021/12/06 12:12:54;;;;;;;30.30;18.10;;;;;;;1.16;78.37;99727.75;126582;1310;107920;-80
2021/12/06 12:16:03;;;;;;;33.10;18.90;;;;;;;1.18;78.21;99730.26;126610;1314;108774;-80
2021/12/06 12:19:09;;;;;;;36.40;19.20;;;;;;;1.09;78.26;99729.67;126573;1314;108903;-79
2021/12/06 12:22:16;;;;;;;34.50;18.40;;;;;;;1.01;78.32;99733.54;126507;1314;108942;-81
2021/12/06 12:25:29;;;;;;;27.90;16.00;;;;;;;0.97;78.54;99727.52;126621;1311;108795;-81
2021/12/06 12:28:41;;;;;;;35.70;19.30;;;;;;;1.04;78.54;99722.45;126690;1314;109046;-81
2021/12/06 12:31:47;;;;;;;41.40;21.30;;;;;;;1.05;78.14;99731.16;126623;1310;107398;-79
2021/12/06 12:34:56;;;;;;;38.90;19.90;;;;;;;1.08;78.31;99729.23;126739;1314;108845;-81
2021/12/06 12:38:03;;;;;;;41.50;21.80;;;;;;;1.12;78.19;99730.34;126568;1314;108938;-80
2021/12/06 12:41:12;;;;;;;36.10;19.20;;;;;;;1.12;78.15;99726.14;126520;1310;109047;-80
2021/12/06 12:44:18;;;;;;;44.10;22.00;;;;;;;1.04;78.17;99732.46;126723;1310;109196;-81
2021/12/06 12:47:26;;;;;;;35.90;19.50;;;;;;;0.95;78.24;99734.31;126650;1310;109019;-81
2021/12/06 12:50:32;;;;;;;31.30;17.00;;;;;;;0.94;78.23;99738.75;126750;1310;108910;-81
2021/12/06 12:54:01;;;;;;;34.00;18.70;;;;;;;0.93;78.44;99746.00;126744;1310;108881;-81
2021/12/06 12:57:12;;;;;;;36.40;19.50;;;;;;;0.96;78.37;99742.29;126740;1310;108772;-81
2021/12/06 13:00:24;;;;;;;37.20;19.70;;;;;;;0.98;78.34;99743.58;126725;1310;108928;-81
2021/12/06 13:03:37;;;;;;;37.60;20.60;;;;;;;0.95;78.14;99751.84;126582;1314;108885;-79
2021/12/06 13:06:43;;;;;;;38.90;21.00;;;;;;;0.91;78.36;99752.45;126966;1310;108784;-80
2021/12/06 13:09:48;;;;;;;41.30;21.30;;;;;;;0.80;78.22;99753.58;126858;1310;108959;-80
2021/12/06 13:12:58;;;;;;;43.70;22.30;;;;;;;0.71;78.43;99757.46;126761;1311;108928;-79
2021/12/06 13:16:10;;;;;;;40.10;21.10;;;;;;;0.63;78.61;99756.40;126878;1310;108757;-80
2021/12/06 13:19:22;;;;;;;36.60;18.90;;;;;;;0.61;78.80;99756.18;126950;1310;108844;-81
2021/12/06 13:22:31;;;;;;;;;;;;;;;0.61;78.64;99756.87;126780;1310;108888;-79
2021/12/06 13:25:37;;;;;;;46.00;22.90;;;;;;;0.56;78.92;99756.20;126657;1311;108966;-79
2021/12/06 13:29:04;;;;;;;45.10;22.80;;;;;;;0.45;79.26;99760.59;126607;1314;108957;-80
2021/12/06 13:32:41;;;;;;;43.10;23.30;;;;;;;0.42;79.06;99772.70;126593;1314;109028;-80
2021/12/06 13:35:52;;;;;;;50.90;23.60;;;;;;;0.34;79.14;99781.40;126587;1311;108838;-79
2021/12/06 13:38:58;;;;;;;48.60;22.50;;;;;;;0.33;79.10;99788.48;126502;1316;108774;-80
2021/12/06 13:42:06;;;;;;;39.30;20.70;;;;;;;0.33;79.14;99793.40;126486;1310;108883;-79
2021/12/06 13:45:20;;;;;;;40.00;20.10;;;;;;;0.34;79.20;99800.99;126662;1310;108918;-81
2021/12/06 13:48:33;;;;;;;37.00;20.80;;;;;;;0.35;78.85;99802.54;126572;1310;108935;-80
2021/12/06 13:51:57;;;;;;;100.50;63.30;;;;;;;0.41;78.83;99806.15;126600;1313;108791;-80
2021/12/06 13:55:16;;;;;;;51.80;29.60;;;;;;;0.41;78.67;99800.26;126513;1310;108926;-80
2021/12/06 13:58:23;;;;;;;47.20;23.40;;;;;;;0.41;78.67;99800.90;126473;1310;108744;-80
2021/12/06 14:01:30;;;;;;;49.40;23.50;;;;;;;0.44;78.58;99802.48;126495;1310;108914;-80
2021/12/06 14:04:39;;;;;;;46.70;23.70;;;;;;;0.43;78.67;99807.25;126583;1311;108920;-80
2021/12/06 14:07:45;;;;;;;47.00;21.70;;;;;;;0.41;78.87;99809.30;126633;1310;108836;-79
2021/12/06 14:10:55;;;;;;;42.20;22.00;;;;;;;0.46;78.64;99808.83;126631;1310;108727;-80
2021/12/06 14:14:01;;;;;;;42.00;22.30;;;;;;;0.50;78.32;99812.20;126570;1310;109081;-78
2021/12/06 14:17:08;;;;;;;42.60;23.00;;;;;;;0.52;78.29;99822.09;126607;1311;108871;-78
2021/12/06 14:20:15;;;;;;;43.80;22.70;;;;;;;0.49;78.32;99827.15;126533;1310;108786;-81